Pelicano — FGE6958 — position and weather

sailwx.info

Track history (hours):
 
Tides and Currents Weather Stations Pressure Air Temp Water Temp Dewpoint Dewpoint Depression Visibility Wind Speed Wind Dir Waves Ship Positions

Pelicano

Last reported at 2018-Jan-06 21:11 UTC. Time now 2018-Feb-24 06:13 UTC.
Position N 14°27' W 060°58'.
Warning: this ship's position is 48 days out of date.

Length 16 m.

Type: Sailing vessel. MMSI: 227667150.

Date/timePositionNaut miles runAvg speedWind from/ knotsBaromVisibWave heightAir tempDewpointWater temp
2018-Jan-06 21:11N 14°27' W 060°58'1 5.7
2018-Jan-06 21:00N 14°27' W 060°57'3 5.8
2018-Jan-06 20:30N 14°27' W 060°54'2 3.5
2018-Jan-06 20:00N 14°28' W 060°52'0 0.0
2018-Jan-06 19:30N 14°28' W 060°52'0 0.0
2018-Jan-06 18:57N 14°28' W 060°52'0 0.0
2018-Jan-06 18:30N 14°28' W 060°52'0 0.0
2018-Jan-06 18:00N 14°28' W 060°52'0 0.0
2018-Jan-06 17:30N 14°28' W 060°52'0 0.0
2018-Jan-06 17:00N 14°28' W 060°52'0 0.7
2018-Jan-06 16:29N 14°28' W 060°53'2 3.4
2018-Jan-06 15:59N 14°26' W 060°53'0 0.0
2018-Jan-06 15:29N 14°26' W 060°53'0 0.0
2018-Jan-06 14:59N 14°26' W 060°53'1 1.6
2018-Jan-06 14:31N 14°26' W 060°54'2 3.5
2018-Jan-06 14:00N 14°26' W 060°56'  
Track history (hours):
 
Tides and Currents Weather Stations Pressure Air Temp Water Temp Dewpoint Dewpoint Depression Visibility Wind Speed Wind Dir Waves Ship Positions

Pelicano

Last reported at 2018-Jan-06 21:11 UTC. Time now 2018-Feb-24 06:13 UTC.
Position N 14°27' W 060°58'.
Warning: this ship's position is 48 days out of date.

Length 16 m.

Type: Sailing vessel. MMSI: 227667150.

Date/timePositionNaut miles runAvg speedWind from/ knotsBaromVisibWave heightAir tempDewpointWater temp
2018-Jan-06 21:11N 14°27' W 060°58'1 5.7
2018-Jan-06 21:00N 14°27' W 060°57'3 5.8
2018-Jan-06 20:30N 14°27' W 060°54'2 3.5
2018-Jan-06 20:00N 14°28' W 060°52'0 0.0
2018-Jan-06 19:30N 14°28' W 060°52'0 0.0
2018-Jan-06 18:57N 14°28' W 060°52'0 0.0
2018-Jan-06 18:30N 14°28' W 060°52'0 0.0
2018-Jan-06 18:00N 14°28' W 060°52'0 0.0
2018-Jan-06 17:30N 14°28' W 060°52'0 0.0
2018-Jan-06 17:00N 14°28' W 060°52'0 0.7
2018-Jan-06 16:29N 14°28' W 060°53'2 3.4
2018-Jan-06 15:59N 14°26' W 060°53'0 0.0
2018-Jan-06 15:29N 14°26' W 060°53'0 0.0
2018-Jan-06 14:59N 14°26' W 060°53'1 1.6
2018-Jan-06 14:31N 14°26' W 060°54'2 3.5
2018-Jan-06 14:00N 14°26' W 060°56'  

Dump ship's entire track history